EDFM/MHG METAR and TAF weather

Enter ICAO airport designator
Station Type Date Time Source
EDFM METAR 2018/04/20 08:50 UTC NOAA

EDFM 200850Z VRB03KT CAVOK 22/08 Q1024


Station Type Date Time Source
EDFM Decoded METAR 2018/04/20 08:50 UTC NOAA

Baden Wurttemberg, Neuostheim, Germany (EDFM) 49-28-21N 008-30-56E
Apr 20, 2018 - 04:50 AM EDT / 2018.04.20 0850 UTC
Wind: Variable at 3 MPH (3 KT):0
Visibility: greater than 7 mile(s):0
Temperature: 71 F (22 C)
Dew Point: 46 F (8 C)
Relative Humidity: 40%
Pressure (altimeter): 30.24 in. Hg (1024 hPa)
ob: EDFM 200850Z VRB03KT CAVOK 22/08 Q1024
cycle: 9

Station Type Date Time Source
EDFM TAF 2012/03/06 06:30 UTC NOAA

TAF EDFM 060519Z 0606/0621 15004KT 9999 FEW040


Example: see airport list